sensor_id;sensor_type;location;lat;lon;timestamp;P1;durP1;ratioP1;P2;durP2;ratioP2
1140;SDS011;559;48.628;8.924;2022-09-16T00:00:22;62.80;;;58.20;;
1140;SDS011;559;48.628;8.924;2022-09-16T00:02:51;62.00;;;57.22;;
1140;SDS011;559;48.628;8.924;2022-09-16T00:05:18;60.38;;;55.78;;
1140;SDS011;559;48.628;8.924;2022-09-16T00:07:45;62.90;;;58.22;;
1140;SDS011;559;48.628;8.924;2022-09-16T00:10:11;59.83;;;55.10;;
1140;SDS011;559;48.628;8.924;2022-09-16T00:12:38;63.10;;;58.35;;
1140;SDS011;559;48.628;8.924;2022-09-16T00:15:05;62.85;;;57.95;;
1140;SDS011;559;48.628;8.924;2022-09-16T00:17:32;62.27;;;57.37;;
1140;SDS011;559;48.628;8.924;2022-09-16T00:20:00;62.42;;;57.63;;
1140;SDS011;559;48.628;8.924;2022-09-16T00:22:27;63.13;;;58.33;;
1140;SDS011;559;48.628;8.924;2022-09-16T00:24:54;62.75;;;57.95;;
1140;SDS011;559;48.628;8.924;2022-09-16T00:27:20;62.37;;;57.67;;
1140;SDS011;559;48.628;8.924;2022-09-16T00:29:47;63.17;;;58.38;;
1140;SDS011;559;48.628;8.924;2022-09-16T00:32:14;60.55;;;55.55;;
1140;SDS011;559;48.628;8.924;2022-09-16T00:34:41;61.17;;;56.22;;
1140;SDS011;559;48.628;8.924;2022-09-16T00:37:08;62.75;;;58.00;;
1140;SDS011;559;48.628;8.924;2022-09-16T00:39:35;59.80;;;55.00;;
1140;SDS011;559;48.628;8.924;2022-09-16T00:42:02;62.00;;;57.15;;
1140;SDS011;559;48.628;8.924;2022-09-16T00:47:17;62.05;;;57.45;;
1140;SDS011;559;48.628;8.924;2022-09-16T00:49:46;63.20;;;58.40;;
1140;SDS011;559;48.628;8.924;2022-09-16T00:52:14;62.10;;;57.27;;
1140;SDS011;559;48.628;8.924;2022-09-16T00:54:41;64.95;;;59.92;;
1140;SDS011;559;48.628;8.924;2022-09-16T00:57:08;63.38;;;58.67;;
1140;SDS011;559;48.628;8.924;2022-09-16T00:59:36;68.75;;;63.75;;
1140;SDS011;559;48.628;8.924;2022-09-16T01:02:04;65.03;;;60.20;;
1140;SDS011;559;48.628;8.924;2022-09-16T01:04:34;64.88;;;60.08;;
1140;SDS011;559;48.628;8.924;2022-09-16T01:07:04;65.20;;;60.50;;
1140;SDS011;559;48.628;8.924;2022-09-16T01:09:31;60.60;;;56.08;;
1140;SDS011;559;48.628;8.924;2022-09-16T01:11:58;60.28;;;55.45;;
1140;SDS011;559;48.628;8.924;2022-09-16T01:14:25;59.58;;;54.88;;
1140;SDS011;559;48.628;8.924;2022-09-16T01:17:12;62.07;;;57.37;;
1140;SDS011;559;48.628;8.924;2022-09-16T01:19:50;58.55;;;53.95;;
1140;SDS011;559;48.628;8.924;2022-09-16T01:22:33;60.03;;;55.38;;
1140;SDS011;559;48.628;8.924;2022-09-16T01:25:12;60.78;;;56.17;;
1140;SDS011;559;48.628;8.924;2022-09-16T01:27:59;60.78;;;55.88;;
1140;SDS011;559;48.628;8.924;2022-09-16T01:30:47;61.85;;;57.15;;
1140;SDS011;559;48.628;8.924;2022-09-16T01:33:20;62.28;;;57.75;;
1140;SDS011;559;48.628;8.924;2022-09-16T01:36:10;60.70;;;55.90;;
1140;SDS011;559;48.628;8.924;2022-09-16T01:38:51;64.18;;;59.47;;
1140;SDS011;559;48.628;8.924;2022-09-16T01:41:24;63.42;;;58.72;;
1140;SDS011;559;48.628;8.924;2022-09-16T01:43:54;64.35;;;59.25;;
1140;SDS011;559;48.628;8.924;2022-09-16T01:46:26;62.53;;;57.72;;
1140;SDS011;559;48.628;8.924;2022-09-16T01:48:57;63.85;;;59.15;;
1140;SDS011;559;48.628;8.924;2022-09-16T01:51:27;61.45;;;56.70;;
1140;SDS011;559;48.628;8.924;2022-09-16T01:53:59;59.92;;;55.33;;
1140;SDS011;559;48.628;8.924;2022-09-16T01:56:29;60.22;;;55.75;;
1140;SDS011;559;48.628;8.924;2022-09-16T01:59:01;72.18;;;66.78;;
1140;SDS011;559;48.628;8.924;2022-09-16T02:01:33;81.07;;;75.40;;
1140;SDS011;559;48.628;8.924;2022-09-16T02:04:04;79.93;;;74.22;;
1140;SDS011;559;48.628;8.924;2022-09-16T02:06:32;75.57;;;69.97;;
1140;SDS011;559;48.628;8.924;2022-09-16T02:09:00;79.53;;;73.82;;
1140;SDS011;559;48.628;8.924;2022-09-16T02:11:29;77.85;;;72.25;;
1140;SDS011;559;48.628;8.924;2022-09-16T02:13:56;78.38;;;72.50;;
1140;SDS011;559;48.628;8.924;2022-09-16T02:16:27;76.93;;;71.03;;
1140;SDS011;559;48.628;8.924;2022-09-16T02:18:59;82.18;;;76.20;;
1140;SDS011;559;48.628;8.924;2022-09-16T02:21:30;76.80;;;70.97;;
1140;SDS011;559;48.628;8.924;2022-09-16T02:23:59;75.28;;;69.43;;
1140;SDS011;559;48.628;8.924;2022-09-16T02:26:29;74.60;;;69.00;;
1140;SDS011;559;48.628;8.924;2022-09-16T02:28:58;74.40;;;69.05;;
1140;SDS011;559;48.628;8.924;2022-09-16T02:31:27;77.90;;;72.60;;
1140;SDS011;559;48.628;8.924;2022-09-16T02:33:59;72.28;;;67.07;;
1140;SDS011;559;48.628;8.924;2022-09-16T02:36:28;66.20;;;61.15;;
1140;SDS011;559;48.628;8.924;2022-09-16T02:38:56;65.28;;;60.00;;
1140;SDS011;559;48.628;8.924;2022-09-16T02:41:25;63.70;;;58.70;;
1140;SDS011;559;48.628;8.924;2022-09-16T02:43:52;62.95;;;58.05;;
1140;SDS011;559;48.628;8.924;2022-09-16T02:46:21;63.13;;;58.33;;
1140;SDS011;559;48.628;8.924;2022-09-16T02:48:53;65.57;;;60.47;;
1140;SDS011;559;48.628;8.924;2022-09-16T02:51:27;65.07;;;60.08;;
1140;SDS011;559;48.628;8.924;2022-09-16T02:53:58;60.78;;;55.97;;
1140;SDS011;559;48.628;8.924;2022-09-16T02:56:28;59.25;;;54.40;;
1140;SDS011;559;48.628;8.924;2022-09-16T02:58:57;58.45;;;53.95;;
1140;SDS011;559;48.628;8.924;2022-09-16T03:01:23;59.38;;;54.83;;
1140;SDS011;559;48.628;8.924;2022-09-16T03:03:52;58.45;;;53.85;;
1140;SDS011;559;48.628;8.924;2022-09-16T03:06:20;57.80;;;53.00;;
1140;SDS011;559;48.628;8.924;2022-09-16T03:08:49;59.13;;;54.53;;
1140;SDS011;559;48.628;8.924;2022-09-16T03:11:23;59.08;;;54.08;;
1140;SDS011;559;48.628;8.924;2022-09-16T03:14:06;59.78;;;55.15;;
1140;SDS011;559;48.628;8.924;2022-09-16T03:16:41;61.00;;;56.20;;
1140;SDS011;559;48.628;8.924;2022-09-16T03:19:13;66.63;;;61.50;;
1140;SDS011;559;48.628;8.924;2022-09-16T03:21:44;60.67;;;55.83;;
1140;SDS011;559;48.628;8.924;2022-09-16T03:24:15;62.50;;;57.70;;
1140;SDS011;559;48.628;8.924;2022-09-16T03:26:45;62.50;;;57.72;;
1140;SDS011;559;48.628;8.924;2022-09-16T03:29:16;60.60;;;55.70;;
1140;SDS011;559;48.628;8.924;2022-09-16T03:31:45;61.47;;;56.55;;
1140;SDS011;559;48.628;8.924;2022-09-16T03:34:15;59.25;;;54.55;;
1140;SDS011;559;48.628;8.924;2022-09-16T03:36:46;61.55;;;56.75;;
1140;SDS011;559;48.628;8.924;2022-09-16T03:39:17;59.65;;;55.03;;
1140;SDS011;559;48.628;8.924;2022-09-16T03:41:46;59.25;;;54.55;;
1140;SDS011;559;48.628;8.924;2022-09-16T03:44:13;58.42;;;53.70;;
1140;SDS011;559;48.628;8.924;2022-09-16T03:46:39;63.58;;;58.58;;
1140;SDS011;559;48.628;8.924;2022-09-16T03:49:06;60.75;;;55.78;;
1140;SDS011;559;48.628;8.924;2022-09-16T03:51:32;63.55;;;58.67;;
1140;SDS011;559;48.628;8.924;2022-09-16T03:53:59;61.10;;;56.30;;
1140;SDS011;559;48.628;8.924;2022-09-16T03:56:26;65.05;;;60.05;;
1140;SDS011;559;48.628;8.924;2022-09-16T03:58:53;63.47;;;58.58;;
1140;SDS011;559;48.628;8.924;2022-09-16T04:01:19;65.47;;;60.58;;
1140;SDS011;559;48.628;8.924;2022-09-16T04:03:46;66.38;;;61.28;;
1140;SDS011;559;48.628;8.924;2022-09-16T04:06:13;72.88;;;67.57;;
1140;SDS011;559;48.628;8.924;2022-09-16T04:08:39;72.85;;;67.45;;
1140;SDS011;559;48.628;8.924;2022-09-16T04:11:08;74.20;;;69.00;;
1140;SDS011;559;48.628;8.924;2022-09-16T04:13:36;76.22;;;70.82;;
1140;SDS011;559;48.628;8.924;2022-09-16T04:16:03;76.93;;;71.72;;
1140;SDS011;559;48.628;8.924;2022-09-16T04:18:30;75.90;;;70.60;;
1140;SDS011;559;48.628;8.924;2022-09-16T04:20:56;79.00;;;73.70;;
1140;SDS011;559;48.628;8.924;2022-09-16T04:23:23;77.18;;;71.88;;
1140;SDS011;559;48.628;8.924;2022-09-16T04:25:52;80.35;;;74.75;;
1140;SDS011;559;48.628;8.924;2022-09-16T04:28:20;78.35;;;72.95;;
1140;SDS011;559;48.628;8.924;2022-09-16T04:30:47;78.15;;;72.65;;
1140;SDS011;559;48.628;8.924;2022-09-16T04:33:14;77.85;;;72.47;;
1140;SDS011;559;48.628;8.924;2022-09-16T04:35:40;78.90;;;73.57;;
1140;SDS011;559;48.628;8.924;2022-09-16T04:38:07;77.57;;;72.22;;
1140;SDS011;559;48.628;8.924;2022-09-16T04:40:33;79.43;;;74.22;;
1140;SDS011;559;48.628;8.924;2022-09-16T04:43:00;76.80;;;71.55;;
1140;SDS011;559;48.628;8.924;2022-09-16T04:45:26;75.78;;;70.38;;
1140;SDS011;559;48.628;8.924;2022-09-16T04:47:55;74.15;;;69.00;;
1140;SDS011;559;48.628;8.924;2022-09-16T04:50:22;74.68;;;69.40;;
1140;SDS011;559;48.628;8.924;2022-09-16T04:52:49;80.85;;;75.25;;
1140;SDS011;559;48.628;8.924;2022-09-16T04:55:15;80.97;;;75.07;;
1140;SDS011;559;48.628;8.924;2022-09-16T04:57:42;78.45;;;73.05;;
1140;SDS011;559;48.628;8.924;2022-09-16T05:00:09;83.35;;;77.82;;
1140;SDS011;559;48.628;8.924;2022-09-16T05:02:36;83.80;;;77.80;;
1140;SDS011;559;48.628;8.924;2022-09-16T05:05:04;84.60;;;78.80;;
1140;SDS011;559;48.628;8.924;2022-09-16T05:07:31;87.00;;;81.20;;
1140;SDS011;559;48.628;8.924;2022-09-16T05:09:58;83.95;;;78.35;;
1140;SDS011;559;48.628;8.924;2022-09-16T05:12:24;80.25;;;74.93;;
1140;SDS011;559;48.628;8.924;2022-09-16T05:14:51;84.55;;;78.78;;
1140;SDS011;559;48.628;8.924;2022-09-16T05:17:17;90.05;;;84.28;;
1140;SDS011;559;48.628;8.924;2022-09-16T05:19:44;91.38;;;85.32;;
1140;SDS011;559;48.628;8.924;2022-09-16T05:22:12;96.22;;;90.03;;
1140;SDS011;559;48.628;8.924;2022-09-16T05:24:38;94.60;;;88.80;;
1140;SDS011;559;48.628;8.924;2022-09-16T05:27:04;87.93;;;82.47;;
1140;SDS011;559;48.628;8.924;2022-09-16T05:29:31;93.55;;;87.47;;
1140;SDS011;559;48.628;8.924;2022-09-16T05:31:57;94.97;;;88.78;;
1140;SDS011;559;48.628;8.924;2022-09-16T05:34:24;90.03;;;84.22;;
1140;SDS011;559;48.628;8.924;2022-09-16T05:36:52;97.15;;;90.85;;
1140;SDS011;559;48.628;8.924;2022-09-16T05:39:21;86.05;;;80.55;;
1140;SDS011;559;48.628;8.924;2022-09-16T05:41:48;84.93;;;79.63;;
1140;SDS011;559;48.628;8.924;2022-09-16T05:44:14;85.72;;;80.22;;
1140;SDS011;559;48.628;8.924;2022-09-16T05:46:41;82.30;;;77.00;;
1140;SDS011;559;48.628;8.924;2022-09-16T05:49:10;79.05;;;73.88;;
1140;SDS011;559;48.628;8.924;2022-09-16T05:51:37;81.70;;;76.50;;
1140;SDS011;559;48.628;8.924;2022-09-16T05:54:05;84.25;;;78.93;;
1140;SDS011;559;48.628;8.924;2022-09-16T05:56:33;87.93;;;82.35;;
1140;SDS011;559;48.628;8.924;2022-09-16T05:59:00;94.85;;;89.05;;
1140;SDS011;559;48.628;8.924;2022-09-16T06:01:28;87.28;;;81.88;;
1140;SDS011;559;48.628;8.924;2022-09-16T06:03:55;92.75;;;86.93;;
1140;SDS011;559;48.628;8.924;2022-09-16T06:06:22;83.80;;;77.93;;
1140;SDS011;559;48.628;8.924;2022-09-16T06:08:50;95.32;;;89.63;;
1140;SDS011;559;48.628;8.924;2022-09-16T06:11:17;92.20;;;86.70;;
1140;SDS011;559;48.628;8.924;2022-09-16T06:13:45;83.15;;;77.85;;
1140;SDS011;559;48.628;8.924;2022-09-16T06:16:12;75.38;;;69.63;;
1140;SDS011;559;48.628;8.924;2022-09-16T06:18:39;79.30;;;74.30;;
1140;SDS011;559;48.628;8.924;2022-09-16T06:21:08;73.35;;;68.75;;
1140;SDS011;559;48.628;8.924;2022-09-16T06:23:36;69.25;;;64.75;;
1140;SDS011;559;48.628;8.924;2022-09-16T06:26:03;70.30;;;65.75;;
1140;SDS011;559;48.628;8.924;2022-09-16T06:28:31;77.43;;;72.63;;
1140;SDS011;559;48.628;8.924;2022-09-16T06:31:03;81.15;;;76.05;;
1140;SDS011;559;48.628;8.924;2022-09-16T06:33:30;78.60;;;73.60;;
1140;SDS011;559;48.628;8.924;2022-09-16T06:35:57;83.72;;;78.65;;
1140;SDS011;559;48.628;8.924;2022-09-16T06:38:23;77.32;;;72.13;;
1140;SDS011;559;48.628;8.924;2022-09-16T06:40:50;81.85;;;76.85;;
1140;SDS011;559;48.628;8.924;2022-09-16T06:43:16;82.65;;;77.40;;
1140;SDS011;559;48.628;8.924;2022-09-16T06:45:43;80.07;;;74.80;;
1140;SDS011;559;48.628;8.924;2022-09-16T06:48:11;77.88;;;71.57;;
1140;SDS011;559;48.628;8.924;2022-09-16T06:50:37;80.28;;;75.20;;
1140;SDS011;559;48.628;8.924;2022-09-16T06:53:04;101.40;;;95.40;;
1140;SDS011;559;48.628;8.924;2022-09-16T06:55:30;87.40;;;81.85;;
1140;SDS011;559;48.628;8.924;2022-09-16T06:57:57;81.25;;;76.10;;
1140;SDS011;559;48.628;8.924;2022-09-16T07:00:23;77.72;;;72.40;;
1140;SDS011;559;48.628;8.924;2022-09-16T07:02:50;80.03;;;74.82;;
1140;SDS011;559;48.628;8.924;2022-09-16T07:05:18;80.93;;;75.13;;
1140;SDS011;559;48.628;8.924;2022-09-16T07:07:44;78.13;;;73.03;;
1140;SDS011;559;48.628;8.924;2022-09-16T07:10:11;82.65;;;77.13;;
1140;SDS011;559;48.628;8.924;2022-09-16T07:12:38;86.32;;;80.65;;
1140;SDS011;559;48.628;8.924;2022-09-16T07:15:05;87.05;;;81.65;;
1140;SDS011;559;48.628;8.924;2022-09-16T07:17:32;88.93;;;83.13;;
1140;SDS011;559;48.628;8.924;2022-09-16T07:22:30;88.88;;;83.18;;
1140;SDS011;559;48.628;8.924;2022-09-16T07:24:57;92.63;;;86.72;;
1140;SDS011;559;48.628;8.924;2022-09-16T07:27:23;91.20;;;85.10;;
1140;SDS011;559;48.628;8.924;2022-09-16T07:29:50;90.95;;;84.95;;
1140;SDS011;559;48.628;8.924;2022-09-16T07:32:18;94.20;;;87.95;;
1140;SDS011;559;48.628;8.924;2022-09-16T07:34:44;94.28;;;88.07;;
1140;SDS011;559;48.628;8.924;2022-09-16T07:37:11;95.05;;;89.15;;
1140;SDS011;559;48.628;8.924;2022-09-16T07:39:39;91.65;;;85.25;;
1140;SDS011;559;48.628;8.924;2022-09-16T07:42:05;94.15;;;88.25;;
1140;SDS011;559;48.628;8.924;2022-09-16T07:44:34;94.07;;;88.38;;
1140;SDS011;559;48.628;8.924;2022-09-16T07:47:01;98.53;;;92.53;;
1140;SDS011;559;48.628;8.924;2022-09-16T07:49:27;102.40;;;96.40;;
1140;SDS011;559;48.628;8.924;2022-09-16T07:51:54;100.57;;;94.70;;
1140;SDS011;559;48.628;8.924;2022-09-16T07:54:20;101.57;;;95.57;;
1140;SDS011;559;48.628;8.924;2022-09-16T07:56:48;98.28;;;92.22;;
1140;SDS011;559;48.628;8.924;2022-09-16T07:59:17;101.88;;;95.57;;
1140;SDS011;559;48.628;8.924;2022-09-16T08:01:46;98.90;;;92.90;;
1140;SDS011;559;48.628;8.924;2022-09-16T08:04:13;103.00;;;96.90;;
1140;SDS011;559;48.628;8.924;2022-09-16T08:06:41;94.63;;;88.38;;
1140;SDS011;559;48.628;8.924;2022-09-16T08:09:07;102.65;;;96.45;;
1140;SDS011;559;48.628;8.924;2022-09-16T08:11:34;97.13;;;91.00;;
1140;SDS011;559;48.628;8.924;2022-09-16T08:14:04;98.38;;;92.32;;
1140;SDS011;559;48.628;8.924;2022-09-16T08:16:31;92.32;;;86.13;;
1140;SDS011;559;48.628;8.924;2022-09-16T08:18:57;98.65;;;92.53;;
1140;SDS011;559;48.628;8.924;2022-09-16T08:21:25;95.15;;;89.25;;
1140;SDS011;559;48.628;8.924;2022-09-16T08:23:52;93.78;;;87.63;;
1140;SDS011;559;48.628;8.924;2022-09-16T08:26:25;93.10;;;87.30;;
1140;SDS011;559;48.628;8.924;2022-09-16T08:28:54;86.63;;;80.97;;
1140;SDS011;559;48.628;8.924;2022-09-16T08:31:22;85.90;;;80.00;;
1140;SDS011;559;48.628;8.924;2022-09-16T08:33:49;87.90;;;82.10;;
1140;SDS011;559;48.628;8.924;2022-09-16T08:36:16;92.20;;;86.40;;
1140;SDS011;559;48.628;8.924;2022-09-16T08:38:44;87.90;;;82.18;;
1140;SDS011;559;48.628;8.924;2022-09-16T08:41:19;88.45;;;82.55;;
1140;SDS011;559;48.628;8.924;2022-09-16T08:43:51;80.35;;;75.00;;
1140;SDS011;559;48.628;8.924;2022-09-16T08:46:25;84.05;;;78.30;;
1140;SDS011;559;48.628;8.924;2022-09-16T08:51:50;82.22;;;76.75;;
1140;SDS011;559;48.628;8.924;2022-09-16T08:54:23;85.53;;;80.10;;
1140;SDS011;559;48.628;8.924;2022-09-16T08:57:10;75.82;;;70.82;;
1140;SDS011;559;48.628;8.924;2022-09-16T08:59:48;82.63;;;77.43;;
1140;SDS011;559;48.628;8.924;2022-09-16T09:02:23;73.90;;;69.20;;
1140;SDS011;559;48.628;8.924;2022-09-16T09:04:58;84.93;;;79.85;;
1140;SDS011;559;48.628;8.924;2022-09-16T09:07:31;70.20;;;65.40;;
1140;SDS011;559;48.628;8.924;2022-09-16T09:10:07;76.63;;;71.70;;
1140;SDS011;559;48.628;8.924;2022-09-16T09:12:46;73.47;;;68.47;;
1140;SDS011;559;48.628;8.924;2022-09-16T09:15:20;75.03;;;69.70;;
1140;SDS011;559;48.628;8.924;2022-09-16T09:18:05;74.70;;;69.90;;
1140;SDS011;559;48.628;8.924;2022-09-16T09:20:44;68.90;;;64.10;;
1140;SDS011;559;48.628;8.924;2022-09-16T09:23:23;64.78;;;60.58;;
1140;SDS011;559;48.628;8.924;2022-09-16T09:26:03;63.33;;;59.13;;
1140;SDS011;559;48.628;8.924;2022-09-16T09:28:55;59.65;;;55.75;;
1140;SDS011;559;48.628;8.924;2022-09-16T09:31:43;61.05;;;56.97;;
1140;SDS011;559;48.628;8.924;2022-09-16T09:34:19;64.93;;;60.53;;
1140;SDS011;559;48.628;8.924;2022-09-16T09:37:03;64.78;;;60.47;;
1140;SDS011;559;48.628;8.924;2022-09-16T09:39:43;65.18;;;60.78;;
1140;SDS011;559;48.628;8.924;2022-09-16T09:42:17;71.40;;;66.80;;
1140;SDS011;559;48.628;8.924;2022-09-16T09:44:49;69.07;;;64.55;;
1140;SDS011;559;48.628;8.924;2022-09-16T09:47:22;64.60;;;60.40;;
1140;SDS011;559;48.628;8.924;2022-09-16T09:49:56;60.40;;;56.17;;
1140;SDS011;559;48.628;8.924;2022-09-16T09:52:27;58.58;;;54.53;;
1140;SDS011;559;48.628;8.924;2022-09-16T09:54:59;59.03;;;55.00;;
1140;SDS011;559;48.628;8.924;2022-09-16T09:57:35;54.35;;;50.25;;
1140;SDS011;559;48.628;8.924;2022-09-16T10:00:10;56.60;;;52.80;;
1140;SDS011;559;48.628;8.924;2022-09-16T10:02:39;54.50;;;50.80;;
1140;SDS011;559;48.628;8.924;2022-09-16T10:05:09;51.60;;;47.92;;
1140;SDS011;559;48.628;8.924;2022-09-16T10:07:42;49.35;;;45.75;;
1140;SDS011;559;48.628;8.924;2022-09-16T10:10:11;47.88;;;44.47;;
1140;SDS011;559;48.628;8.924;2022-09-16T10:12:40;50.60;;;47.25;;
1140;SDS011;559;48.628;8.924;2022-09-16T10:15:17;46.70;;;43.28;;
1140;SDS011;559;48.628;8.924;2022-09-16T10:17:47;50.25;;;46.90;;
1140;SDS011;559;48.628;8.924;2022-09-16T10:20:21;53.65;;;49.65;;
1140;SDS011;559;48.628;8.924;2022-09-16T10:22:52;55.05;;;51.45;;
1140;SDS011;559;48.628;8.924;2022-09-16T10:25:22;52.88;;;49.38;;
1140;SDS011;559;48.628;8.924;2022-09-16T10:27:53;53.03;;;49.25;;
1140;SDS011;559;48.628;8.924;2022-09-16T10:30:25;47.45;;;44.22;;
1140;SDS011;559;48.628;8.924;2022-09-16T10:32:53;45.78;;;42.65;;
1140;SDS011;559;48.628;8.924;2022-09-16T10:35:23;45.35;;;42.45;;
1140;SDS011;559;48.628;8.924;2022-09-16T10:37:52;47.03;;;44.05;;
1140;SDS011;559;48.628;8.924;2022-09-16T10:40:20;47.95;;;44.85;;
1140;SDS011;559;48.628;8.924;2022-09-16T10:42:48;44.92;;;41.92;;
1140;SDS011;559;48.628;8.924;2022-09-16T10:45:17;44.25;;;41.45;;
1140;SDS011;559;48.628;8.924;2022-09-16T10:47:52;41.38;;;38.67;;
1140;SDS011;559;48.628;8.924;2022-09-16T10:50:21;41.10;;;38.58;;
1140;SDS011;559;48.628;8.924;2022-09-16T10:52:49;41.75;;;38.58;;
1140;SDS011;559;48.628;8.924;2022-09-16T10:55:23;42.25;;;39.65;;
1140;SDS011;559;48.628;8.924;2022-09-16T10:57:51;41.35;;;38.70;;
1140;SDS011;559;48.628;8.924;2022-09-16T11:00:19;43.05;;;40.35;;
1140;SDS011;559;48.628;8.924;2022-09-16T11:06:12;43.38;;;40.58;;
1140;SDS011;559;48.628;8.924;2022-09-16T11:08:50;42.50;;;39.85;;
1140;SDS011;559;48.628;8.924;2022-09-16T11:11:26;41.42;;;38.83;;
1140;SDS011;559;48.628;8.924;2022-09-16T11:14:02;40.97;;;38.50;;
1140;SDS011;559;48.628;8.924;2022-09-16T11:16:44;40.60;;;38.30;;
1140;SDS011;559;48.628;8.924;2022-09-16T11:19:30;42.90;;;40.20;;
1140;SDS011;559;48.628;8.924;2022-09-16T11:22:06;42.75;;;40.25;;
1140;SDS011;559;48.628;8.924;2022-09-16T11:27:37;42.53;;;39.92;;
1140;SDS011;559;48.628;8.924;2022-09-16T11:30:08;40.10;;;37.60;;
1140;SDS011;559;48.628;8.924;2022-09-16T11:32:44;39.30;;;36.78;;
1140;SDS011;559;48.628;8.924;2022-09-16T11:35:23;38.55;;;36.25;;
1140;SDS011;559;48.628;8.924;2022-09-16T11:37:58;39.58;;;37.75;;
1140;SDS011;559;48.628;8.924;2022-09-16T11:40:32;35.47;;;34.03;;
1140;SDS011;559;48.628;8.924;2022-09-16T11:43:08;35.03;;;33.47;;
1140;SDS011;559;48.628;8.924;2022-09-16T11:45:56;34.67;;;33.17;;
1140;SDS011;559;48.628;8.924;2022-09-16T11:48:33;32.25;;;31.05;;
1140;SDS011;559;48.628;8.924;2022-09-16T11:51:10;33.75;;;32.15;;
1140;SDS011;559;48.628;8.924;2022-09-16T11:54:03;33.78;;;32.28;;
1140;SDS011;559;48.628;8.924;2022-09-16T11:56:36;34.72;;;33.33;;
1140;SDS011;559;48.628;8.924;2022-09-16T11:59:04;35.30;;;33.55;;
1140;SDS011;559;48.628;8.924;2022-09-16T12:01:38;33.80;;;32.50;;
1140;SDS011;559;48.628;8.924;2022-09-16T12:04:10;32.83;;;31.48;;
1140;SDS011;559;48.628;8.924;2022-09-16T12:06:39;32.20;;;30.75;;
1140;SDS011;559;48.628;8.924;2022-09-16T12:09:12;32.03;;;30.65;;
1140;SDS011;559;48.628;8.924;2022-09-16T12:11:43;32.47;;;31.27;;
1140;SDS011;559;48.628;8.924;2022-09-16T12:14:12;33.90;;;32.30;;
1140;SDS011;559;48.628;8.924;2022-09-16T12:16:42;34.22;;;32.72;;
1140;SDS011;559;48.628;8.924;2022-09-16T12:19:13;34.20;;;32.75;;
1140;SDS011;559;48.628;8.924;2022-09-16T12:21:45;33.60;;;32.10;;
1140;SDS011;559;48.628;8.924;2022-09-16T12:24:16;32.38;;;31.05;;
1140;SDS011;559;48.628;8.924;2022-09-16T12:26:47;33.40;;;31.85;;
1140;SDS011;559;48.628;8.924;2022-09-16T12:29:17;33.25;;;31.95;;
1140;SDS011;559;48.628;8.924;2022-09-16T12:31:46;34.03;;;32.63;;
1140;SDS011;559;48.628;8.924;2022-09-16T12:34:15;34.55;;;33.05;;
1140;SDS011;559;48.628;8.924;2022-09-16T12:36:46;35.78;;;34.17;;
1140;SDS011;559;48.628;8.924;2022-09-16T12:39:15;35.72;;;34.22;;
1140;SDS011;559;48.628;8.924;2022-09-16T12:41:48;34.45;;;33.05;;
1140;SDS011;559;48.628;8.924;2022-09-16T12:50:09;36.13;;;34.22;;
1140;SDS011;559;48.628;8.924;2022-09-16T12:53:04;33.25;;;31.80;;
1140;SDS011;559;48.628;8.924;2022-09-16T12:55:57;31.38;;;30.17;;
1140;SDS011;559;48.628;8.924;2022-09-16T12:58:37;27.67;;;26.52;;
1140;SDS011;559;48.628;8.924;2022-09-16T13:01:15;34.47;;;32.80;;
1140;SDS011;559;48.628;8.924;2022-09-16T13:03:47;28.13;;;26.98;;
1140;SDS011;559;48.628;8.924;2022-09-16T13:06:18;27.08;;;26.17;;
1140;SDS011;559;48.628;8.924;2022-09-16T13:08:48;22.70;;;21.95;;
1140;SDS011;559;48.628;8.924;2022-09-16T13:11:18;19.73;;;19.02;;
1140;SDS011;559;48.628;8.924;2022-09-16T13:13:47;17.23;;;16.43;;
1140;SDS011;559;48.628;8.924;2022-09-16T13:16:25;12.60;;;12.23;;
1140;SDS011;559;48.628;8.924;2022-09-16T13:19:02;17.98;;;17.23;;
1140;SDS011;559;48.628;8.924;2022-09-16T13:21:53;15.73;;;15.07;;
1140;SDS011;559;48.628;8.924;2022-09-16T13:24:23;20.70;;;19.85;;
1140;SDS011;559;48.628;8.924;2022-09-16T13:26:53;22.13;;;21.33;;
1140;SDS011;559;48.628;8.924;2022-09-16T13:29:38;24.07;;;23.10;;
1140;SDS011;559;48.628;8.924;2022-09-16T13:34:59;34.53;;;33.43;;
1140;SDS011;559;48.628;8.924;2022-09-16T13:37:26;46.53;;;45.10;;
1140;SDS011;559;48.628;8.924;2022-09-16T13:39:52;51.90;;;50.38;;
1140;SDS011;559;48.628;8.924;2022-09-16T13:42:20;45.77;;;44.43;;
1140;SDS011;559;48.628;8.924;2022-09-16T13:44:48;51.17;;;49.30;;
1140;SDS011;559;48.628;8.924;2022-09-16T13:47:16;53.47;;;51.83;;
1140;SDS011;559;48.628;8.924;2022-09-16T13:49:46;57.93;;;55.83;;
1140;SDS011;559;48.628;8.924;2022-09-16T13:52:15;60.80;;;58.80;;
1140;SDS011;559;48.628;8.924;2022-09-16T13:54:46;62.27;;;60.07;;
1140;SDS011;559;48.628;8.924;2022-09-16T13:57:26;63.58;;;61.42;;
1140;SDS011;559;48.628;8.924;2022-09-16T14:00:11;62.47;;;60.50;;
1140;SDS011;559;48.628;8.924;2022-09-16T14:02:54;61.03;;;59.22;;
1140;SDS011;559;48.628;8.924;2022-09-16T14:05:28;65.57;;;63.50;;
1140;SDS011;559;48.628;8.924;2022-09-16T14:08:03;70.25;;;67.80;;
1140;SDS011;559;48.628;8.924;2022-09-16T14:10:34;68.70;;;66.60;;
1140;SDS011;559;48.628;8.924;2022-09-16T14:13:08;81.30;;;78.63;;
1140;SDS011;559;48.628;8.924;2022-09-16T14:15:38;70.80;;;68.57;;
1140;SDS011;559;48.628;8.924;2022-09-16T14:18:08;70.50;;;68.30;;
1140;SDS011;559;48.628;8.924;2022-09-16T14:20:37;66.27;;;64.37;;
1140;SDS011;559;48.628;8.924;2022-09-16T14:23:04;56.93;;;55.30;;
1140;SDS011;559;48.628;8.924;2022-09-16T14:25:44;57.07;;;55.27;;
1140;SDS011;559;48.628;8.924;2022-09-16T14:28:16;57.47;;;55.87;;
1140;SDS011;559;48.628;8.924;2022-09-16T14:30:44;53.77;;;52.20;;
1140;SDS011;559;48.628;8.924;2022-09-16T14:33:12;55.27;;;53.67;;
1140;SDS011;559;48.628;8.924;2022-09-16T14:35:39;56.87;;;55.30;;
1140;SDS011;559;48.628;8.924;2022-09-16T14:38:06;51.47;;;49.80;;
1140;SDS011;559;48.628;8.924;2022-09-16T14:40:32;42.93;;;41.57;;
1140;SDS011;559;48.628;8.924;2022-09-16T14:43:01;46.43;;;45.03;;
1140;SDS011;559;48.628;8.924;2022-09-16T14:45:30;47.27;;;45.77;;
1140;SDS011;559;48.628;8.924;2022-09-16T14:47:59;41.03;;;39.83;;
1140;SDS011;559;48.628;8.924;2022-09-16T14:50:27;48.13;;;46.80;;
1140;SDS011;559;48.628;8.924;2022-09-16T14:52:56;53.67;;;52.00;;
1140;SDS011;559;48.628;8.924;2022-09-16T14:55:24;46.30;;;45.10;;
1140;SDS011;559;48.628;8.924;2022-09-16T14:57:54;42.03;;;40.53;;
1140;SDS011;559;48.628;8.924;2022-09-16T15:00:21;43.27;;;42.07;;
1140;SDS011;559;48.628;8.924;2022-09-16T15:02:50;48.80;;;46.93;;
1140;SDS011;559;48.628;8.924;2022-09-16T15:05:20;34.83;;;33.83;;
1140;SDS011;559;48.628;8.924;2022-09-16T15:07:48;29.37;;;27.73;;
1140;SDS011;559;48.628;8.924;2022-09-16T15:10:17;23.10;;;22.17;;
1140;SDS011;559;48.628;8.924;2022-09-16T15:12:47;24.83;;;24.03;;
1140;SDS011;559;48.628;8.924;2022-09-16T15:15:18;27.63;;;26.83;;
1140;SDS011;559;48.628;8.924;2022-09-16T15:17:51;29.65;;;28.90;;
1140;SDS011;559;48.628;8.924;2022-09-16T15:20:19;25.70;;;24.93;;
1140;SDS011;559;48.628;8.924;2022-09-16T15:22:47;25.07;;;24.20;;
1140;SDS011;559;48.628;8.924;2022-09-16T15:25:17;17.93;;;17.33;;
1140;SDS011;559;48.628;8.924;2022-09-16T15:27:45;18.20;;;17.50;;
1140;SDS011;559;48.628;8.924;2022-09-16T15:30:18;17.80;;;17.20;;
1140;SDS011;559;48.628;8.924;2022-09-16T15:32:46;21.83;;;20.97;;
1140;SDS011;559;48.628;8.924;2022-09-16T15:35:17;25.97;;;25.07;;
1140;SDS011;559;48.628;8.924;2022-09-16T15:37:46;27.13;;;26.33;;
1140;SDS011;559;48.628;8.924;2022-09-16T15:40:28;24.17;;;23.03;;
1140;SDS011;559;48.628;8.924;2022-09-16T15:43:01;27.80;;;27.00;;